PWSweather.com
Personal Weather Stations
Station Observations

PoschiavoCH

Lat: 46.31962499999999, Lon: 10.066551000000004

Elevation: 3517

Station Type: WH 1080

http://www.meteoposchiavo.com

High Low Average
Temperature 55.0°F12.8°C 26.0°F-3.3°C 38.4°F3.6°C
Dew Point 29.3°F-1.5°C 13.9°F-10.1°C 21.3°F-5.9°C
Winds 4.6 mph 7.4 kmh Calm Calm 1.0 mph SE1.6 kmh SE
Wind Gusts 6.9 mph11.1 kmh -- 1.0 mph1.6 kmh
Humidity 69% 27% 52%
Pressure 27.04 in915.7 mb 26.87 in909.9 mb -
Precipitation 0.00 in0.0 mm - -
Hour Temp Dew Point Humidity Winds Wind Gusts Pressure Precip Precip Rate Daily Precip Total
12:00 AM 31.0°F-0.6°C 18.3°F-7.6°C 59% Calm Calm -- 26.99 in914.0 mb - 0.00 in0.0 mm 0.00 in0.0 mm
12:10 AM 30.0°F-1.1°C 18.2°F-7.7°C 61% Calm Calm -- 27.00 in914.3 mb - 0.00 in0.0 mm 0.00 in0.0 mm
12:15 AM 30.0°F-1.1°C 17.8°F-7.9°C 60% Calm Calm -- 26.99 in914.0 mb - 0.00 in0.0 mm 0.00 in0.0 mm
12:20 AM 30.0°F-1.1°C 17.8°F-7.9°C 60% Calm Calm -- 26.99 in914.0 mb - 0.00 in0.0 mm 0.00 in0.0 mm
12:25 AM 30.0°F-1.1°C 17.0°F-8.3°C 58% Calm Calm -- 26.99 in914.0 mb - 0.00 in0.0 mm 0.00 in0.0 mm
12:30 AM 31.0°F-0.6°C 17.9°F-7.8°C 58% Calm Calm -- 26.99 in914.0 mb - 0.00 in0.0 mm 0.00 in0.0 mm
12:35 AM 30.0°F-1.1°C 18.2°F-7.7°C 61% Calm Calm -- 27.00 in914.3 mb - 0.00 in0.0 mm 0.00 in0.0 mm
12:40 AM 30.0°F-1.1°C 17.0°F-8.3°C 58% Calm Calm -- 26.99 in914.0 mb - 0.00 in0.0 mm 0.00 in0.0 mm
12:45 AM 30.0°F-1.1°C 18.5°F-7.5°C 62% Calm Calm -- 27.01 in914.7 mb - 0.00 in0.0 mm 0.00 in0.0 mm
12:50 AM 30.0°F-1.1°C 17.4°F-8.1°C 59% Calm Calm -- 27.00 in914.3 mb - 0.00 in0.0 mm 0.00 in0.0 mm
12:55 AM 30.0°F-1.1°C 18.2°F-7.7°C 61% Calm Calm -- 27.01 in914.7 mb - 0.00 in0.0 mm 0.00 in0.0 mm
01:00 AM 30.0°F-1.1°C 17.8°F-7.9°C 60% Calm Calm -- 27.01 in914.7 mb - 0.00 in0.0 mm 0.00 in0.0 mm
01:10 AM 29.0°F-1.7°C 16.4°F-8.7°C 59% Calm Calm -- 27.01 in914.7 mb - 0.00 in0.0 mm 0.00 in0.0 mm
01:15 AM 29.0°F-1.7°C 18.7°F-7.4°C 65% Calm Calm -- 27.01 in914.7 mb - 0.00 in0.0 mm 0.00 in0.0 mm
01:20 AM 29.0°F-1.7°C 18.0°F-7.8°C 63% Calm Calm -- 27.01 in914.7 mb - 0.00 in0.0 mm 0.00 in0.0 mm
01:25 AM 29.0°F-1.7°C 18.0°F-7.8°C 63% Calm Calm -- 27.01 in914.7 mb - 0.00 in0.0 mm 0.00 in0.0 mm
01:30 AM 29.0°F-1.7°C 17.6°F-8.0°C 62% Calm Calm -- 27.01 in914.7 mb - 0.00 in0.0 mm 0.00 in0.0 mm
01:35 AM 29.0°F-1.7°C 18.0°F-7.8°C 63% Calm Calm -- 27.01 in914.7 mb - 0.00 in0.0 mm 0.00 in0.0 mm
01:40 AM 28.0°F-2.2°C 17.0°F-8.3°C 63% Calm Calm -- 27.01 in914.7 mb - 0.00 in0.0 mm 0.00 in0.0 mm
01:45 AM 28.0°F-2.2°C 18.1°F-7.7°C 66% Calm Calm -- 27.01 in914.7 mb - 0.00 in0.0 mm 0.00 in0.0 mm
01:50 AM 28.0°F-2.2°C 17.7°F-7.9°C 65% Calm Calm -- 27.01 in914.7 mb - 0.00 in0.0 mm 0.00 in0.0 mm
01:55 AM 28.0°F-2.2°C 17.4°F-8.1°C 64% Calm Calm -- 27.01 in914.7 mb - 0.00 in0.0 mm 0.00 in0.0 mm
02:00 AM 29.0°F-1.7°C 18.3°F-7.6°C 64% Calm Calm -- 27.01 in914.7 mb - 0.00 in0.0 mm 0.00 in0.0 mm
02:10 AM 29.0°F-1.7°C 17.6°F-8.0°C 62% Calm Calm -- 27.01 in914.7 mb - 0.00 in0.0 mm 0.00 in0.0 mm
02:15 AM 28.0°F-2.2°C 17.7°F-7.9°C 65% Calm Calm -- 27.01 in914.7 mb - 0.00 in0.0 mm 0.00 in0.0 mm
02:20 AM 28.0°F-2.2°C 17.4°F-8.1°C 64% Calm Calm -- 27.01 in914.7 mb - 0.00 in0.0 mm 0.00 in0.0 mm
02:25 AM 28.0°F-2.2°C 17.0°F-8.3°C 63% Calm Calm -- 27.01 in914.7 mb - 0.00 in0.0 mm 0.00 in0.0 mm
02:30 AM 29.0°F-1.7°C 18.0°F-7.8°C 63% Calm Calm -- 27.00 in914.3 mb - 0.00 in0.0 mm 0.00 in0.0 mm
02:35 AM 29.0°F-1.7°C 17.6°F-8.0°C 62% Calm Calm -- 27.00 in914.3 mb - 0.00 in0.0 mm 0.00 in0.0 mm
02:40 AM 28.3°F-2.1°C 17.7°F-7.9°C 64% Calm Calm -- 27.00 in914.3 mb - 0.00 in0.0 mm 0.00 in0.0 mm
02:45 AM 28.0°F-2.2°C 17.4°F-8.1°C 64% Calm Calm -- 27.00 in914.3 mb - 0.00 in0.0 mm 0.00 in0.0 mm
02:50 AM 28.0°F-2.2°C 16.6°F-8.6°C 62% Calm Calm -- 27.00 in914.3 mb - 0.00 in0.0 mm 0.00 in0.0 mm
02:55 AM 28.0°F-2.2°C 17.4°F-8.1°C 64% Calm Calm -- 27.00 in914.3 mb - 0.00 in0.0 mm 0.00 in0.0 mm
03:00 AM 28.0°F-2.2°C 17.7°F-7.9°C 65% Calm Calm -- 27.00 in914.3 mb - 0.00 in0.0 mm 0.00 in0.0 mm
03:10 AM 27.0°F-2.8°C 16.4°F-8.7°C 64% Calm Calm -- 27.00 in914.3 mb - 0.00 in0.0 mm 0.00 in0.0 mm
03:15 AM 27.0°F-2.8°C 16.4°F-8.7°C 64% Calm Calm -- 27.00 in914.3 mb - 0.00 in0.0 mm 0.00 in0.0 mm
03:20 AM 28.0°F-2.2°C 17.7°F-7.9°C 65% Calm Calm -- 27.00 in914.3 mb - 0.00 in0.0 mm 0.00 in0.0 mm
03:25 AM 28.0°F-2.2°C 17.7°F-7.9°C 65% Calm Calm -- 27.00 in914.3 mb - 0.00 in0.0 mm 0.00 in0.0 mm
03:30 AM 27.0°F-2.8°C 16.8°F-8.4°C 65% Calm Calm -- 27.00 in914.3 mb - 0.00 in0.0 mm 0.00 in0.0 mm
03:35 AM 27.5°F-2.5°C 16.9°F-8.4°C 64% Calm Calm -- 27.00 in914.3 mb - 0.00 in0.0 mm 0.00 in0.0 mm
03:40 AM 28.0°F-2.2°C 17.0°F-8.3°C 63% Calm Calm -- 27.00 in914.3 mb - 0.00 in0.0 mm 0.00 in0.0 mm
03:45 AM 28.0°F-2.2°C 18.1°F-7.7°C 66% Calm Calm -- 27.00 in914.3 mb - 0.00 in0.0 mm 0.00 in0.0 mm
03:50 AM 27.0°F-2.8°C 17.1°F-8.3°C 66% Calm Calm -- 27.00 in914.3 mb - 0.00 in0.0 mm 0.00 in0.0 mm
03:55 AM 27.0°F-2.8°C 17.8°F-7.9°C 68% Calm Calm -- 27.00 in914.3 mb - 0.00 in0.0 mm 0.00 in0.0 mm
04:00 AM 27.0°F-2.8°C 16.8°F-8.4°C 65% Calm Calm -- 27.00 in914.3 mb - 0.00 in0.0 mm 0.00 in0.0 mm
04:10 AM 27.0°F-2.8°C 16.4°F-8.7°C 64% Calm Calm -- 26.99 in914.0 mb - 0.00 in0.0 mm 0.00 in0.0 mm
04:15 AM 27.0°F-2.8°C 16.1°F-8.8°C 63% Calm Calm -- 27.00 in914.3 mb - 0.00 in0.0 mm 0.00 in0.0 mm
04:20 AM 27.3°F-2.6°C 16.4°F-8.7°C 63% Calm Calm -- 27.00 in914.3 mb - 0.00 in0.0 mm 0.00 in0.0 mm
04:25 AM 28.0°F-2.2°C 17.4°F-8.1°C 64% Calm Calm -- 27.00 in914.3 mb - 0.00 in0.0 mm 0.00 in0.0 mm
04:30 AM 27.0°F-2.8°C 16.8°F-8.4°C 65% Calm Calm -- 27.00 in914.3 mb - 0.00 in0.0 mm 0.00 in0.0 mm
04:35 AM 27.0°F-2.8°C 17.1°F-8.3°C 66% Calm Calm -- 27.01 in914.7 mb - 0.00 in0.0 mm 0.00 in0.0 mm
04:40 AM 27.0°F-2.8°C 17.1°F-8.3°C 66% Calm Calm -- 27.00 in914.3 mb - 0.00 in0.0 mm 0.00 in0.0 mm
04:45 AM 27.0°F-2.8°C 17.5°F-8.1°C 67% Calm Calm -- 27.00 in914.3 mb - 0.00 in0.0 mm 0.00 in0.0 mm
04:50 AM 28.0°F-2.2°C 17.7°F-7.9°C 65% Calm Calm -- 27.00 in914.3 mb - 0.00 in0.0 mm 0.00 in0.0 mm
04:55 AM 28.0°F-2.2°C 18.5°F-7.5°C 67% Calm Calm -- 27.01 in914.7 mb - 0.00 in0.0 mm 0.00 in0.0 mm
05:00 AM 27.0°F-2.8°C 17.5°F-8.1°C 67% Calm Calm -- 27.00 in914.3 mb - 0.00 in0.0 mm 0.00 in0.0 mm
05:10 AM 27.0°F-2.8°C 16.4°F-8.7°C 64% Calm Calm -- 27.00 in914.3 mb - 0.00 in0.0 mm 0.00 in0.0 mm
05:15 AM 27.0°F-2.8°C 16.8°F-8.4°C 65% Calm Calm -- 27.01 in914.7 mb - 0.00 in0.0 mm 0.00 in0.0 mm
05:20 AM 27.0°F-2.8°C 16.8°F-8.4°C 65% Calm Calm -- 27.00 in914.3 mb - 0.00 in0.0 mm 0.00 in0.0 mm
05:25 AM 27.0°F-2.8°C 16.4°F-8.7°C 64% Calm Calm -- 27.01 in914.7 mb - 0.00 in0.0 mm 0.00 in0.0 mm
05:30 AM 27.0°F-2.8°C 16.8°F-8.4°C 65% Calm Calm -- 27.00 in914.3 mb - 0.00 in0.0 mm 0.00 in0.0 mm
05:35 AM 27.0°F-2.8°C 18.2°F-7.7°C 69% Calm Calm -- 27.01 in914.7 mb - 0.00 in0.0 mm 0.00 in0.0 mm
05:40 AM 26.0°F-3.3°C 16.5°F-8.6°C 67% Calm Calm -- 27.01 in914.7 mb - 0.00 in0.0 mm 0.00 in0.0 mm
05:45 AM 27.0°F-2.8°C 17.1°F-8.3°C 66% Calm Calm -- 27.00 in914.3 mb - 0.00 in0.0 mm 0.00 in0.0 mm
05:50 AM 27.0°F-2.8°C 16.8°F-8.4°C 65% Calm Calm -- 27.01 in914.7 mb - 0.00 in0.0 mm 0.00 in0.0 mm
05:55 AM 26.3°F-3.2°C 16.5°F-8.6°C 66% Calm Calm -- 27.00 in914.3 mb - 0.00 in0.0 mm 0.00 in0.0 mm
06:00 AM 26.0°F-3.3°C 16.2°F-8.8°C 66% Calm Calm -- 27.00 in914.3 mb - 0.00 in0.0 mm 0.00 in0.0 mm
06:10 AM 26.0°F-3.3°C 15.8°F-9.0°C 65% Calm Calm -- 27.01 in914.7 mb - 0.00 in0.0 mm 0.00 in0.0 mm
06:15 AM 27.0°F-2.8°C 17.1°F-8.3°C 66% Calm Calm -- 27.01 in914.7 mb - 0.00 in0.0 mm 0.00 in0.0 mm
06:20 AM 27.0°F-2.8°C 16.8°F-8.4°C 65% Calm Calm -- 27.01 in914.7 mb - 0.00 in0.0 mm 0.00 in0.0 mm
06:25 AM 26.0°F-3.3°C 16.2°F-8.8°C 66% Calm Calm -- 27.02 in915.0 mb - 0.00 in0.0 mm 0.00 in0.0 mm
06:30 AM 26.0°F-3.3°C 15.8°F-9.0°C 65% Calm Calm -- 27.01 in914.7 mb - 0.00 in0.0 mm 0.00 in0.0 mm
06:35 AM 26.0°F-3.3°C 15.8°F-9.0°C 65% Calm Calm -- 27.02 in915.0 mb - 0.00 in0.0 mm 0.00 in0.0 mm
06:40 AM 26.0°F-3.3°C 16.9°F-8.4°C 68% Calm Calm -- 27.02 in915.0 mb - 0.00 in0.0 mm 0.00 in0.0 mm
06:45 AM 26.0°F-3.3°C 16.2°F-8.8°C 66% Calm Calm -- 27.02 in915.0 mb - 0.00 in0.0 mm 0.00 in0.0 mm
06:50 AM 26.0°F-3.3°C 15.8°F-9.0°C 65% Calm Calm -- 27.02 in915.0 mb - 0.00 in0.0 mm 0.00 in0.0 mm
06:55 AM 26.0°F-3.3°C 15.8°F-9.0°C 65% Calm Calm -- 27.02 in915.0 mb - 0.00 in0.0 mm 0.00 in0.0 mm
07:00 AM 26.0°F-3.3°C 15.8°F-9.0°C 65% Calm Calm -- 27.02 in915.0 mb - 0.00 in0.0 mm 0.00 in0.0 mm
07:10 AM 26.0°F-3.3°C 16.2°F-8.8°C 66% Calm Calm -- 27.03 in915.3 mb - 0.00 in0.0 mm 0.00 in0.0 mm
07:15 AM 26.0°F-3.3°C 16.5°F-8.6°C 67% Calm Calm -- 27.03 in915.3 mb - 0.00 in0.0 mm 0.00 in0.0 mm
07:20 AM 26.0°F-3.3°C 15.5°F-9.2°C 64% Calm Calm -- 27.02 in915.0 mb - 0.00 in0.0 mm 0.00 in0.0 mm
07:25 AM 28.0°F-2.2°C 14.7°F-9.6°C 57% Calm Calm -- 27.02 in915.0 mb - 0.00 in0.0 mm 0.00 in0.0 mm
07:30 AM 28.0°F-2.2°C 14.3°F-9.8°C 56% Calm Calm -- 27.03 in915.3 mb - 0.00 in0.0 mm 0.00 in0.0 mm
07:35 AM 28.0°F-2.2°C 15.1°F-9.4°C 58% Calm Calm -- 27.02 in915.0 mb - 0.00 in0.0 mm 0.00 in0.0 mm
07:40 AM 28.0°F-2.2°C 15.9°F-8.9°C 60% Calm Calm -- 27.02 in915.0 mb - 0.00 in0.0 mm 0.00 in0.0 mm
07:45 AM 28.0°F-2.2°C 15.1°F-9.4°C 58% Calm Calm -- 27.03 in915.3 mb - 0.00 in0.0 mm 0.00 in0.0 mm
07:50 AM 28.0°F-2.2°C 13.9°F-10.1°C 55% Calm Calm -- 27.03 in915.3 mb - 0.00 in0.0 mm 0.00 in0.0 mm
07:55 AM 28.0°F-2.2°C 15.5°F-9.2°C 59% Calm Calm -- 27.03 in915.3 mb - 0.00 in0.0 mm 0.00 in0.0 mm
08:00 AM 27.0°F-2.8°C 15.7°F-9.1°C 62% Calm Calm -- 27.03 in915.3 mb - 0.00 in0.0 mm 0.00 in0.0 mm
08:10 AM 27.0°F-2.8°C 16.4°F-8.7°C 64% Calm Calm -- 27.04 in915.7 mb - 0.00 in0.0 mm 0.00 in0.0 mm
08:15 AM 26.0°F-3.3°C 15.8°F-9.0°C 65% Calm Calm -- 27.03 in915.3 mb - 0.00 in0.0 mm 0.00 in0.0 mm
08:20 AM 26.0°F-3.3°C 15.8°F-9.0°C 65% Calm Calm -- 27.04 in915.7 mb - 0.00 in0.0 mm 0.00 in0.0 mm
08:25 AM 26.0°F-3.3°C 15.8°F-9.0°C 65% Calm Calm -- 27.04 in915.7 mb - 0.00 in0.0 mm 0.00 in0.0 mm
08:30 AM 27.0°F-2.8°C 16.8°F-8.4°C 65% Calm Calm -- 27.03 in915.3 mb - 0.00 in0.0 mm 0.00 in0.0 mm
08:35 AM 28.0°F-2.2°C 17.4°F-8.1°C 64% Calm Calm -- 27.03 in915.3 mb - 0.00 in0.0 mm 0.00 in0.0 mm
08:40 AM 30.0°F-1.1°C 17.0°F-8.3°C 58% Calm Calm -- 27.03 in915.3 mb - 0.00 in0.0 mm 0.00 in0.0 mm
08:45 AM 32.0°F0.0°C 18.5°F-7.5°C 57% Calm Calm -- 27.03 in915.3 mb - 0.00 in0.0 mm 0.00 in0.0 mm
08:50 AM 32.0°F0.0°C 18.9°F-7.3°C 58% Calm Calm -- 27.03 in915.3 mb - 0.00 in0.0 mm 0.00 in0.0 mm
08:55 AM 33.0°F0.6°C 18.1°F-7.7°C 54% Calm Calm -- 27.02 in915.0 mb - 0.00 in0.0 mm 0.00 in0.0 mm
09:00 AM 33.0°F0.6°C 19.0°F-7.2°C 56% Calm Calm -- 27.03 in915.3 mb - 0.00 in0.0 mm 0.00 in0.0 mm
09:10 AM 33.8°F1.0°C 18.5°F-7.5°C 53% 1.2 mph N1.9 kmh N 1.2 mph1.9 kmh 27.02 in915.0 mb - 0.00 in0.0 mm 0.00 in0.0 mm
09:15 AM 34.6°F1.4°C 18.3°F-7.6°C 51% 1.2 mph N1.9 kmh N 1.2 mph1.9 kmh 27.02 in915.0 mb - 0.00 in0.0 mm 0.00 in0.0 mm
09:20 AM 36.0°F2.2°C 17.7°F-7.9°C 47% Calm Calm -- 27.01 in914.7 mb - 0.00 in0.0 mm 0.00 in0.0 mm
09:25 AM 37.0°F2.8°C 16.0°F-8.9°C 42% Calm Calm -- 27.01 in914.7 mb - 0.00 in0.0 mm 0.00 in0.0 mm
09:30 AM 37.0°F2.8°C 16.0°F-8.9°C 42% Calm Calm -- 27.01 in914.7 mb - 0.00 in0.0 mm 0.00 in0.0 mm
09:35 AM 38.0°F3.3°C 18.5°F-7.5°C 45% Calm Calm -- 27.01 in914.7 mb - 0.00 in0.0 mm 0.00 in0.0 mm
09:40 AM 38.0°F3.3°C 17.5°F-8.1°C 43% Calm Calm -- 27.01 in914.7 mb - 0.00 in0.0 mm 0.00 in0.0 mm
09:45 AM 39.0°F3.9°C 17.3°F-8.2°C 41% Calm Calm 1.2 mph1.9 kmh 27.00 in914.3 mb - 0.00 in0.0 mm 0.00 in0.0 mm
09:50 AM 39.0°F3.9°C 17.8°F-7.9°C 42% Calm Calm -- 27.00 in914.3 mb - 0.00 in0.0 mm 0.00 in0.0 mm
09:55 AM 41.0°F5.0°C 17.9°F-7.8°C 39% Calm Calm -- 27.00 in914.3 mb - 0.00 in0.0 mm 0.00 in0.0 mm
10:00 AM 41.0°F5.0°C 18.5°F-7.5°C 40% Calm Calm -- 27.00 in914.3 mb - 0.00 in0.0 mm 0.00 in0.0 mm
10:10 AM 41.0°F5.0°C 17.9°F-7.8°C 39% 1.2 mph NW1.9 kmh NW 1.2 mph1.9 kmh 26.99 in914.0 mb - 0.00 in0.0 mm 0.00 in0.0 mm
10:15 AM 40.0°F4.4°C 17.0°F-8.3°C 39% 1.2 mph WNW1.9 kmh WNW 1.2 mph1.9 kmh 26.99 in914.0 mb - 0.00 in0.0 mm 0.00 in0.0 mm
10:20 AM 42.0°F5.6°C 17.6°F-8.0°C 37% Calm Calm -- 26.99 in914.0 mb - 0.00 in0.0 mm 0.00 in0.0 mm
10:25 AM 42.0°F5.6°C 18.2°F-7.7°C 38% 2.3 mph WSW3.7 kmh WSW 2.3 mph3.7 kmh 26.99 in914.0 mb - 0.00 in0.0 mm 0.00 in0.0 mm
10:30 AM 44.0°F6.7°C 18.1°F-7.7°C 35% 3.5 mph WSW5.6 kmh WSW 3.5 mph5.6 kmh 26.98 in913.6 mb - 0.00 in0.0 mm 0.00 in0.0 mm
10:35 AM 46.0°F7.8°C 19.8°F-6.8°C 35% 2.3 mph S3.7 kmh S 2.3 mph3.7 kmh 26.98 in913.6 mb - 0.00 in0.0 mm 0.00 in0.0 mm
10:40 AM 45.0°F7.2°C 19.6°F-6.9°C 36% 2.3 mph WSW3.7 kmh WSW 3.5 mph5.6 kmh 26.98 in913.6 mb - 0.00 in0.0 mm 0.00 in0.0 mm
10:45 AM 46.0°F7.8°C 20.5°F-6.4°C 36% 2.3 mph W3.7 kmh W 2.3 mph3.7 kmh 26.98 in913.6 mb - 0.00 in0.0 mm 0.00 in0.0 mm
10:50 AM 46.0°F7.8°C 19.8°F-6.8°C 35% 2.3 mph SW3.7 kmh SW 3.5 mph5.6 kmh 26.97 in913.3 mb - 0.00 in0.0 mm 0.00 in0.0 mm
10:55 AM 45.1°F7.3°C 18.4°F-7.6°C 34% 3.5 mph SW5.6 kmh SW 3.5 mph5.6 kmh 26.97 in913.3 mb - 0.00 in0.0 mm 0.00 in0.0 mm
11:00 AM 46.0°F7.8°C 21.1°F-6.1°C 37% 3.5 mph SW5.6 kmh SW 3.5 mph5.6 kmh 26.97 in913.3 mb - 0.00 in0.0 mm 0.00 in0.0 mm
11:10 AM 47.0°F8.3°C 19.3°F-7.1°C 33% 2.3 mph WNW3.7 kmh WNW 2.3 mph3.7 kmh 26.97 in913.3 mb - 0.00 in0.0 mm 0.00 in0.0 mm
11:15 AM 48.0°F8.9°C 21.6°F-5.8°C 35% 2.3 mph WSW3.7 kmh WSW 2.3 mph3.7 kmh 26.97 in913.3 mb - 0.00 in0.0 mm 0.00 in0.0 mm
11:20 AM 48.0°F8.9°C 22.3°F-5.4°C 36% 3.5 mph SW5.6 kmh SW 5.8 mph9.3 kmh 26.97 in913.3 mb - 0.00 in0.0 mm 0.00 in0.0 mm
11:25 AM 47.0°F8.3°C 19.3°F-7.1°C 33% Calm Calm 1.2 mph1.9 kmh 26.97 in913.3 mb - 0.00 in0.0 mm 0.00 in0.0 mm
11:30 AM 47.0°F8.3°C 20.0°F-6.7°C 34% 3.5 mph WSW5.6 kmh WSW 3.5 mph5.6 kmh 26.96 in913.0 mb - 0.00 in0.0 mm 0.00 in0.0 mm
11:35 AM 48.0°F8.9°C 21.6°F-5.8°C 35% 4.6 mph SSW7.4 kmh SSW 5.8 mph9.3 kmh 26.96 in913.0 mb - 0.00 in0.0 mm 0.00 in0.0 mm
11:40 AM 48.5°F9.2°C 22.0°F-5.6°C 35% 3.5 mph SSW5.6 kmh SSW 5.8 mph9.3 kmh 26.96 in913.0 mb - 0.00 in0.0 mm 0.00 in0.0 mm
11:45 AM 49.0°F9.4°C 21.8°F-5.7°C 34% 2.3 mph SSW3.7 kmh SSW 3.5 mph5.6 kmh 26.96 in913.0 mb - 0.00 in0.0 mm 0.00 in0.0 mm
11:50 AM 49.0°F9.4°C 23.2°F-4.9°C 36% 3.5 mph SW5.6 kmh SW 3.5 mph5.6 kmh 26.96 in913.0 mb - 0.00 in0.0 mm 0.00 in0.0 mm
11:55 AM 48.0°F8.9°C 20.2°F-6.6°C 33% 3.5 mph SW5.6 kmh SW 3.5 mph5.6 kmh 26.96 in913.0 mb - 0.00 in0.0 mm 0.00 in0.0 mm
12:00 PM 49.0°F9.4°C 18.9°F-7.3°C 30% 2.3 mph SW3.7 kmh SW 3.5 mph5.6 kmh 26.95 in912.6 mb - 0.00 in0.0 mm 0.00 in0.0 mm
12:10 PM 50.0°F10.0°C 22.0°F-5.6°C 33% Calm Calm 1.2 mph1.9 kmh 26.93 in912.0 mb - 0.00 in0.0 mm 0.00 in0.0 mm
12:15 PM 52.0°F11.1°C 19.0°F-7.2°C 27% Calm Calm 1.2 mph1.9 kmh 26.93 in912.0 mb - 0.00 in0.0 mm 0.00 in0.0 mm
12:20 PM 51.0°F10.6°C 21.4°F-5.9°C 31% 2.3 mph SW3.7 kmh SW 2.3 mph3.7 kmh 26.93 in912.0 mb - 0.00 in0.0 mm 0.00 in0.0 mm
12:25 PM 51.0°F10.6°C 23.6°F-4.7°C 34% 2.3 mph SW3.7 kmh SW 2.3 mph3.7 kmh 26.93 in912.0 mb - 0.00 in0.0 mm 0.00 in0.0 mm
12:30 PM 51.3°F10.7°C 23.1°F-4.9°C 33% 2.3 mph SW3.7 kmh SW 3.5 mph5.6 kmh 26.93 in912.0 mb - 0.00 in0.0 mm 0.00 in0.0 mm
12:35 PM 52.0°F11.1°C 22.3°F-5.4°C 31% 2.3 mph SSE3.7 kmh SSE 3.5 mph5.6 kmh 26.93 in912.0 mb - 0.00 in0.0 mm 0.00 in0.0 mm
12:40 PM 51.0°F10.6°C 21.4°F-5.9°C 31% Calm Calm 1.2 mph1.9 kmh 26.93 in912.0 mb - 0.00 in0.0 mm 0.00 in0.0 mm
12:45 PM 54.0°F12.2°C 24.8°F-4.0°C 32% 2.3 mph WSW3.7 kmh WSW 3.5 mph5.6 kmh 26.93 in912.0 mb - 0.00 in0.0 mm 0.00 in0.0 mm
12:50 PM 52.0°F11.1°C 23.0°F-5.0°C 32% 3.5 mph SSW5.6 kmh SSW 5.8 mph9.3 kmh 26.92 in911.6 mb - 0.00 in0.0 mm 0.00 in0.0 mm
12:55 PM 53.0°F11.7°C 22.4°F-5.3°C 30% 2.3 mph SW3.7 kmh SW 3.5 mph5.6 kmh 26.92 in911.6 mb - 0.00 in0.0 mm 0.00 in0.0 mm
01:00 PM 53.0°F11.7°C 20.7°F-6.3°C 28% 2.3 mph WSW3.7 kmh WSW 2.3 mph3.7 kmh 26.91 in911.3 mb - 0.00 in0.0 mm 0.00 in0.0 mm
01:10 PM 53.0°F11.7°C 24.6°F-4.1°C 33% 3.5 mph S5.6 kmh S 3.5 mph5.6 kmh 26.91 in911.3 mb - 0.00 in0.0 mm 0.00 in0.0 mm
01:15 PM 52.3°F11.3°C 24.8°F-4.0°C 34% 3.5 mph SW5.6 kmh SW 3.5 mph5.6 kmh 26.90 in910.9 mb - 0.00 in0.0 mm 0.00 in0.0 mm
01:20 PM 52.1°F11.2°C 24.6°F-4.1°C 34% 3.5 mph SW5.6 kmh SW 5.8 mph9.3 kmh 26.90 in910.9 mb - 0.00 in0.0 mm 0.00 in0.0 mm
01:25 PM 53.0°F11.7°C 24.6°F-4.1°C 33% 3.5 mph SW5.6 kmh SW 5.8 mph9.3 kmh 26.90 in910.9 mb - 0.00 in0.0 mm 0.00 in0.0 mm
01:30 PM 53.0°F11.7°C 22.4°F-5.3°C 30% 3.5 mph SW5.6 kmh SW 5.8 mph9.3 kmh 26.90 in910.9 mb - 0.00 in0.0 mm 0.00 in0.0 mm
01:35 PM 54.0°F12.2°C 20.7°F-6.3°C 27% 4.6 mph SW7.4 kmh SW 6.9 mph11.1 kmh 26.89 in910.6 mb - 0.00 in0.0 mm 0.00 in0.0 mm
01:40 PM 53.0°F11.7°C 23.1°F-4.9°C 31% 1.2 mph W1.9 kmh W 2.3 mph3.7 kmh 26.90 in910.9 mb - 0.00 in0.0 mm 0.00 in0.0 mm
01:45 PM 53.0°F11.7°C 23.9°F-4.5°C 32% 3.5 mph S5.6 kmh S 3.5 mph5.6 kmh 26.89 in910.6 mb - 0.00 in0.0 mm 0.00 in0.0 mm
01:50 PM 54.0°F12.2°C 24.0°F-4.4°C 31% 3.5 mph SSW5.6 kmh SSW 3.5 mph5.6 kmh 26.90 in910.9 mb - 0.00 in0.0 mm 0.00 in0.0 mm
01:55 PM 55.0°F12.8°C 24.1°F-4.4°C 30% 2.3 mph WNW3.7 kmh WNW 3.5 mph5.6 kmh 26.89 in910.6 mb - 0.00 in0.0 mm 0.00 in0.0 mm
02:00 PM 55.0°F12.8°C 27.8°F-2.3°C 35% 3.5 mph SW5.6 kmh SW 5.8 mph9.3 kmh 26.89 in910.6 mb - 0.00 in0.0 mm 0.00 in0.0 mm
02:10 PM 55.0°F12.8°C 24.9°F-3.9°C 31% 2.3 mph SW3.7 kmh SW 3.5 mph5.6 kmh 26.89 in910.6 mb - 0.00 in0.0 mm 0.00 in0.0 mm
02:15 PM 55.0°F12.8°C 29.2°F-1.6°C 37% 2.3 mph SW3.7 kmh SW 3.5 mph5.6 kmh 26.88 in910.3 mb - 0.00 in0.0 mm 0.00 in0.0 mm
02:20 PM 55.0°F12.8°C 27.1°F-2.7°C 34% 2.3 mph WNW3.7 kmh WNW 2.3 mph3.7 kmh 26.88 in910.3 mb - 0.00 in0.0 mm 0.00 in0.0 mm
02:25 PM 55.0°F12.8°C 27.8°F-2.3°C 35% 2.3 mph SW3.7 kmh SW 3.5 mph5.6 kmh 26.89 in910.6 mb - 0.00 in0.0 mm 0.00 in0.0 mm
02:30 PM 54.0°F12.2°C 27.6°F-2.4°C 36% 3.5 mph WSW5.6 kmh WSW 3.5 mph5.6 kmh 26.88 in910.3 mb - 0.00 in0.0 mm 0.00 in0.0 mm
02:35 PM 54.0°F12.2°C 27.6°F-2.4°C 36% 2.3 mph W3.7 kmh W 3.5 mph5.6 kmh 26.88 in910.3 mb - 0.00 in0.0 mm 0.00 in0.0 mm
02:40 PM 54.0°F12.2°C 26.9°F-2.8°C 35% 2.3 mph W3.7 kmh W 3.5 mph5.6 kmh 26.88 in910.3 mb - 0.00 in0.0 mm 0.00 in0.0 mm
02:45 PM 53.0°F11.7°C 26.7°F-2.9°C 36% 2.3 mph W3.7 kmh W 3.5 mph5.6 kmh 26.88 in910.3 mb - 0.00 in0.0 mm 0.00 in0.0 mm
02:50 PM 53.9°F12.2°C 28.2°F-2.1°C 37% 1.2 mph NW1.9 kmh NW 3.5 mph5.6 kmh 26.88 in910.3 mb - 0.00 in0.0 mm 0.00 in0.0 mm
02:55 PM 54.0°F12.2°C 27.6°F-2.4°C 36% 1.2 mph NW1.9 kmh NW 2.3 mph3.7 kmh 26.88 in910.3 mb - 0.00 in0.0 mm 0.00 in0.0 mm
03:00 PM 54.0°F12.2°C 25.5°F-3.6°C 33% 2.3 mph WNW3.7 kmh WNW 2.3 mph3.7 kmh 26.88 in910.3 mb - 0.00 in0.0 mm 0.00 in0.0 mm
03:10 PM 55.0°F12.8°C 27.1°F-2.7°C 34% 2.3 mph WNW3.7 kmh WNW 2.3 mph3.7 kmh 26.87 in909.9 mb - 0.00 in0.0 mm 0.00 in0.0 mm
03:15 PM 54.0°F12.2°C 28.3°F-2.1°C 37% 1.2 mph NW1.9 kmh NW 2.3 mph3.7 kmh 26.88 in910.3 mb - 0.00 in0.0 mm 0.00 in0.0 mm
03:20 PM 55.0°F12.8°C 27.8°F-2.3°C 35% 2.3 mph WNW3.7 kmh WNW 2.3 mph3.7 kmh 26.88 in910.3 mb - 0.00 in0.0 mm 0.00 in0.0 mm
03:25 PM 54.0°F12.2°C 27.6°F-2.4°C 36% 1.2 mph NNW1.9 kmh NNW 1.2 mph1.9 kmh 26.88 in910.3 mb - 0.00 in0.0 mm 0.00 in0.0 mm
03:30 PM 54.0°F12.2°C 26.9°F-2.8°C 35% 1.2 mph NW1.9 kmh NW 2.3 mph3.7 kmh 26.88 in910.3 mb - 0.00 in0.0 mm 0.00 in0.0 mm
03:35 PM 54.0°F12.2°C 26.9°F-2.8°C 35% 3.5 mph W5.6 kmh W 3.5 mph5.6 kmh 26.87 in909.9 mb - 0.00 in0.0 mm 0.00 in0.0 mm
03:40 PM 53.3°F11.8°C 27.0°F-2.8°C 36% 1.2 mph WNW1.9 kmh WNW 3.5 mph5.6 kmh 26.88 in910.3 mb - 0.00 in0.0 mm 0.00 in0.0 mm
03:45 PM 53.0°F11.7°C 26.7°F-2.9°C 36% 1.2 mph NW1.9 kmh NW 2.3 mph3.7 kmh 26.88 in910.3 mb - 0.00 in0.0 mm 0.00 in0.0 mm
03:50 PM 53.0°F11.7°C 25.3°F-3.7°C 34% 1.2 mph NW1.9 kmh NW 1.2 mph1.9 kmh 26.88 in910.3 mb - 0.00 in0.0 mm 0.00 in0.0 mm
03:55 PM 53.0°F11.7°C 25.3°F-3.7°C 34% 1.2 mph NW1.9 kmh NW 1.2 mph1.9 kmh 26.88 in910.3 mb - 0.00 in0.0 mm 0.00 in0.0 mm
04:00 PM 52.0°F11.1°C 24.5°F-4.2°C 34% Calm Calm 1.2 mph1.9 kmh 26.88 in910.3 mb - 0.00 in0.0 mm 0.00 in0.0 mm
04:10 PM 53.0°F11.7°C 23.9°F-4.5°C 32% 1.2 mph NW1.9 kmh NW 1.2 mph1.9 kmh 26.88 in910.3 mb - 0.00 in0.0 mm 0.00 in0.0 mm
04:15 PM 53.0°F11.7°C 23.1°F-4.9°C 31% 2.3 mph WNW3.7 kmh WNW 2.3 mph3.7 kmh 26.88 in910.3 mb - 0.00 in0.0 mm 0.00 in0.0 mm
04:20 PM 52.0°F11.1°C 25.2°F-3.8°C 35% Calm Calm -- 26.88 in910.3 mb - 0.00 in0.0 mm 0.00 in0.0 mm
04:25 PM 52.0°F11.1°C 24.5°F-4.2°C 34% 1.2 mph NW1.9 kmh NW 1.2 mph1.9 kmh 26.88 in910.3 mb - 0.00 in0.0 mm 0.00 in0.0 mm
04:30 PM 51.4°F10.8°C 23.3°F-4.8°C 33% Calm Calm 1.2 mph1.9 kmh 26.88 in910.3 mb - 0.00 in0.0 mm 0.00 in0.0 mm
04:35 PM 51.0°F10.6°C 22.1°F-5.5°C 32% Calm Calm 1.2 mph1.9 kmh 26.88 in910.3 mb - 0.00 in0.0 mm 0.00 in0.0 mm
04:40 PM 51.0°F10.6°C 24.3°F-4.3°C 35% Calm Calm -- 26.88 in910.3 mb - 0.00 in0.0 mm 0.00 in0.0 mm
04:45 PM 52.0°F11.1°C 25.2°F-3.8°C 35% Calm Calm -- 26.88 in910.3 mb - 0.00 in0.0 mm 0.00 in0.0 mm
04:50 PM 52.0°F11.1°C 25.8°F-3.4°C 36% Calm Calm -- 26.88 in910.3 mb - 0.00 in0.0 mm 0.00 in0.0 mm
04:55 PM 51.0°F10.6°C 25.6°F-3.6°C 37% Calm Calm -- 26.89 in910.6 mb - 0.00 in0.0 mm 0.00 in0.0 mm
05:00 PM 51.0°F10.6°C 28.1°F-2.2°C 41% Calm Calm -- 26.88 in910.3 mb - 0.00 in0.0 mm 0.00 in0.0 mm
05:10 PM 50.0°F10.0°C 28.9°F-1.7°C 44% Calm Calm -- 26.89 in910.6 mb - 0.00 in0.0 mm 0.00 in0.0 mm
05:15 PM 49.1°F9.5°C 26.3°F-3.2°C 41% Calm Calm -- 26.90 in910.9 mb - 0.00 in0.0 mm 0.00 in0.0 mm
05:20 PM 49.4°F9.7°C 27.3°F-2.6°C 42% Calm Calm -- 26.90 in910.9 mb - 0.00 in0.0 mm 0.00 in0.0 mm
05:25 PM 50.0°F10.0°C 28.4°F-2.0°C 43% Calm Calm -- 26.90 in910.9 mb - 0.00 in0.0 mm 0.00 in0.0 mm
05:30 PM 48.0°F8.9°C 26.5°F-3.1°C 43% Calm Calm -- 26.90 in910.9 mb - 0.00 in0.0 mm 0.00 in0.0 mm
05:35 PM 48.0°F8.9°C 26.5°F-3.1°C 43% Calm Calm -- 26.90 in910.9 mb - 0.00 in0.0 mm 0.00 in0.0 mm
05:40 PM 48.0°F8.9°C 27.1°F-2.7°C 44% Calm Calm -- 26.90 in910.9 mb - 0.00 in0.0 mm 0.00 in0.0 mm
05:45 PM 48.0°F8.9°C 28.2°F-2.1°C 46% Calm Calm -- 26.90 in910.9 mb - 0.00 in0.0 mm 0.00 in0.0 mm
05:50 PM 47.0°F8.3°C 28.3°F-2.1°C 48% Calm Calm -- 26.90 in910.9 mb - 0.00 in0.0 mm 0.00 in0.0 mm
05:55 PM 47.0°F8.3°C 25.6°F-3.6°C 43% Calm Calm -- 26.91 in911.3 mb - 0.00 in0.0 mm 0.00 in0.0 mm
06:00 PM 47.0°F8.3°C 29.3°F-1.5°C 50% Calm Calm -- 26.91 in911.3 mb - 0.00 in0.0 mm 0.00 in0.0 mm
06:10 PM 46.0°F7.8°C 26.4°F-3.1°C 46% Calm Calm -- 26.91 in911.3 mb - 0.00 in0.0 mm 0.00 in0.0 mm
06:15 PM 46.0°F7.8°C 26.4°F-3.1°C 46% Calm Calm -- 26.92 in911.6 mb - 0.00 in0.0 mm 0.00 in0.0 mm
06:20 PM 46.0°F7.8°C 28.4°F-2.0°C 50% Calm Calm -- 26.92 in911.6 mb - 0.00 in0.0 mm 0.00 in0.0 mm
06:25 PM 45.0°F7.2°C 26.5°F-3.1°C 48% Calm Calm -- 26.92 in911.6 mb - 0.00 in0.0 mm 0.00 in0.0 mm
06:30 PM 44.0°F6.7°C 28.0°F-2.2°C 53% Calm Calm -- 26.92 in911.6 mb - 0.00 in0.0 mm 0.00 in0.0 mm
06:35 PM 43.0°F6.1°C 26.1°F-3.3°C 51% Calm Calm -- 26.93 in912.0 mb - 0.00 in0.0 mm 0.00 in0.0 mm
06:40 PM 42.0°F5.6°C 27.0°F-2.8°C 55% Calm Calm -- 26.93 in912.0 mb - 0.00 in0.0 mm 0.00 in0.0 mm
06:45 PM 42.0°F5.6°C 26.5°F-3.1°C 54% Calm Calm -- 26.93 in912.0 mb - 0.00 in0.0 mm 0.00 in0.0 mm
06:50 PM 41.0°F5.0°C 26.1°F-3.3°C 55% Calm Calm -- 26.92 in911.6 mb - 0.00 in0.0 mm 0.00 in0.0 mm
06:55 PM 41.0°F5.0°C 26.5°F-3.1°C 56% Calm Calm -- 26.93 in912.0 mb - 0.00 in0.0 mm 0.00 in0.0 mm
07:00 PM 41.0°F5.0°C 26.9°F-2.8°C 57% Calm Calm -- 26.93 in912.0 mb - 0.00 in0.0 mm 0.00 in0.0 mm
07:10 PM 41.0°F5.0°C 26.9°F-2.8°C 57% Calm Calm -- 26.94 in912.3 mb - 0.00 in0.0 mm 0.00 in0.0 mm
07:15 PM 41.0°F5.0°C 27.3°F-2.6°C 58% Calm Calm -- 26.94 in912.3 mb - 0.00 in0.0 mm 0.00 in0.0 mm
07:20 PM 40.0°F4.4°C 26.0°F-3.3°C 57% Calm Calm -- 26.94 in912.3 mb - 0.00 in0.0 mm 0.00 in0.0 mm
07:25 PM 40.0°F4.4°C 25.6°F-3.6°C 56% Calm Calm -- 26.94 in912.3 mb - 0.00 in0.0 mm 0.00 in0.0 mm
07:30 PM 40.0°F4.4°C 26.0°F-3.3°C 57% Calm Calm -- 26.95 in912.6 mb - 0.00 in0.0 mm 0.00 in0.0 mm
07:35 PM 40.0°F4.4°C 26.0°F-3.3°C 57% Calm Calm -- 26.95 in912.6 mb - 0.00 in0.0 mm 0.00 in0.0 mm
07:40 PM 40.0°F4.4°C 26.0°F-3.3°C 57% Calm Calm -- 26.95 in912.6 mb - 0.00 in0.0 mm 0.00 in0.0 mm
07:45 PM 40.0°F4.4°C 25.6°F-3.6°C 56% Calm Calm -- 26.96 in913.0 mb - 0.00 in0.0 mm 0.00 in0.0 mm
07:50 PM 40.0°F4.4°C 25.1°F-3.8°C 55% Calm Calm -- 26.96 in913.0 mb - 0.00 in0.0 mm 0.00 in0.0 mm
07:55 PM 40.0°F4.4°C 26.0°F-3.3°C 57% Calm Calm -- 26.96 in913.0 mb - 0.00 in0.0 mm 0.00 in0.0 mm
08:00 PM 39.0°F3.9°C 25.9°F-3.4°C 59% Calm Calm -- 26.96 in913.0 mb - 0.00 in0.0 mm 0.00 in0.0 mm
08:10 PM 39.0°F3.9°C 25.5°F-3.6°C 58% Calm Calm -- 26.96 in913.0 mb - 0.00 in0.0 mm 0.00 in0.0 mm
08:15 PM 38.0°F3.3°C 24.1°F-4.4°C 57% Calm Calm -- 26.97 in913.3 mb - 0.00 in0.0 mm 0.00 in0.0 mm
08:20 PM 37.0°F2.8°C 24.4°F-4.2°C 60% Calm Calm -- 26.97 in913.3 mb - 0.00 in0.0 mm 0.00 in0.0 mm
08:25 PM 37.0°F2.8°C 24.8°F-4.0°C 61% Calm Calm -- 26.97 in913.3 mb - 0.00 in0.0 mm 0.00 in0.0 mm
08:30 PM 37.0°F2.8°C 24.8°F-4.0°C 61% Calm Calm -- 26.96 in913.0 mb - 0.00 in0.0 mm 0.00 in0.0 mm
08:35 PM 37.0°F2.8°C 24.4°F-4.2°C 60% Calm Calm -- 26.97 in913.3 mb - 0.00 in0.0 mm 0.00 in0.0 mm
08:40 PM 37.0°F2.8°C 24.0°F-4.4°C 59% Calm Calm -- 26.98 in913.6 mb - 0.00 in0.0 mm 0.00 in0.0 mm
08:45 PM 37.0°F2.8°C 23.6°F-4.7°C 58% Calm Calm -- 26.97 in913.3 mb - 0.00 in0.0 mm 0.00 in0.0 mm
08:50 PM 37.0°F2.8°C 24.0°F-4.4°C 59% Calm Calm -- 26.97 in913.3 mb - 0.00 in0.0 mm 0.00 in0.0 mm
08:55 PM 36.0°F2.2°C 23.4°F-4.8°C 60% Calm Calm -- 26.98 in913.6 mb - 0.00 in0.0 mm 0.00 in0.0 mm
09:00 PM 36.0°F2.2°C 23.8°F-4.6°C 61% Calm Calm -- 26.97 in913.3 mb - 0.00 in0.0 mm 0.00 in0.0 mm
09:10 PM 36.0°F2.2°C 24.6°F-4.1°C 63% Calm Calm -- 26.98 in913.6 mb - 0.00 in0.0 mm 0.00 in0.0 mm
09:15 PM 36.0°F2.2°C 24.2°F-4.3°C 62% Calm Calm -- 26.98 in913.6 mb - 0.00 in0.0 mm 0.00 in0.0 mm
09:20 PM 35.1°F1.7°C 24.1°F-4.4°C 64% Calm Calm -- 26.98 in913.6 mb - 0.00 in0.0 mm 0.00 in0.0 mm
09:25 PM 35.4°F1.9°C 24.1°F-4.4°C 63% Calm Calm -- 26.98 in913.6 mb - 0.00 in0.0 mm 0.00 in0.0 mm
09:30 PM 36.0°F2.2°C 23.8°F-4.6°C 61% Calm Calm -- 26.98 in913.6 mb - 0.00 in0.0 mm 0.00 in0.0 mm
09:35 PM 37.0°F2.8°C 24.0°F-4.4°C 59% Calm Calm -- 26.98 in913.6 mb - 0.00 in0.0 mm 0.00 in0.0 mm
09:40 PM 36.0°F2.2°C 24.2°F-4.3°C 62% Calm Calm -- 26.98 in913.6 mb - 0.00 in0.0 mm 0.00 in0.0 mm
09:45 PM 35.0°F1.7°C 24.0°F-4.4°C 64% Calm Calm -- 26.99 in914.0 mb - 0.00 in0.0 mm 0.00 in0.0 mm
09:50 PM 37.0°F2.8°C 24.0°F-4.4°C 59% Calm Calm -- 26.99 in914.0 mb - 0.00 in0.0 mm 0.00 in0.0 mm
09:55 PM 37.0°F2.8°C 24.0°F-4.4°C 59% Calm Calm -- 26.98 in913.6 mb - 0.00 in0.0 mm 0.00 in0.0 mm
10:00 PM 37.0°F2.8°C 25.2°F-3.8°C 62% Calm Calm -- 26.98 in913.6 mb - 0.00 in0.0 mm 0.00 in0.0 mm
10:10 PM 36.0°F2.2°C 24.2°F-4.3°C 62% Calm Calm -- 26.99 in914.0 mb - 0.00 in0.0 mm 0.00 in0.0 mm
10:15 PM 36.3°F2.4°C 24.1°F-4.4°C 61% Calm Calm -- 26.99 in914.0 mb - 0.00 in0.0 mm 0.00 in0.0 mm
10:20 PM 37.0°F2.8°C 24.4°F-4.2°C 60% Calm Calm -- 26.99 in914.0 mb - 0.00 in0.0 mm 0.00 in0.0 mm
10:25 PM 36.0°F2.2°C 25.0°F-3.9°C 64% Calm Calm -- 26.98 in913.6 mb - 0.00 in0.0 mm 0.00 in0.0 mm
10:30 PM 36.0°F2.2°C 25.0°F-3.9°C 64% Calm Calm -- 26.99 in914.0 mb - 0.00 in0.0 mm 0.00 in0.0 mm
10:35 PM 36.0°F2.2°C 24.6°F-4.1°C 63% Calm Calm -- 26.99 in914.0 mb - 0.00 in0.0 mm 0.00 in0.0 mm
10:40 PM 35.0°F1.7°C 22.9°F-5.1°C 61% Calm Calm -- 26.99 in914.0 mb - 0.00 in0.0 mm 0.00 in0.0 mm
10:45 PM 36.0°F2.2°C 23.0°F-5.0°C 59% Calm Calm -- 26.99 in914.0 mb - 0.00 in0.0 mm 0.00 in0.0 mm
10:50 PM 36.0°F2.2°C 23.8°F-4.6°C 61% Calm Calm -- 26.99 in914.0 mb - 0.00 in0.0 mm 0.00 in0.0 mm
10:55 PM 36.0°F2.2°C 23.8°F-4.6°C 61% Calm Calm -- 26.99 in914.0 mb - 0.00 in0.0 mm 0.00 in0.0 mm
11:00 PM 35.3°F1.8°C 23.6°F-4.7°C 62% Calm Calm -- 27.00 in914.3 mb - 0.00 in0.0 mm 0.00 in0.0 mm
11:10 PM 35.0°F1.7°C 24.0°F-4.4°C 64% Calm Calm -- 26.99 in914.0 mb - 0.00 in0.0 mm 0.00 in0.0 mm
11:15 PM 34.0°F1.1°C 23.8°F-4.6°C 66% Calm Calm -- 26.99 in914.0 mb - 0.00 in0.0 mm 0.00 in0.0 mm
11:20 PM 34.0°F1.1°C 23.5°F-4.7°C 65% Calm Calm -- 27.00 in914.3 mb - 0.00 in0.0 mm 0.00 in0.0 mm
11:25 PM 34.0°F1.1°C 22.7°F-5.2°C 63% Calm Calm -- 27.00 in914.3 mb - 0.00 in0.0 mm 0.00 in0.0 mm
11:30 PM 35.0°F1.7°C 24.0°F-4.4°C 64% Calm Calm -- 26.99 in914.0 mb - 0.00 in0.0 mm 0.00 in0.0 mm
11:35 PM 34.0°F1.1°C 23.1°F-4.9°C 64% Calm Calm -- 26.99 in914.0 mb - 0.00 in0.0 mm 0.00 in0.0 mm
11:40 PM 34.0°F1.1°C 22.7°F-5.2°C 63% Calm Calm -- 26.99 in914.0 mb - 0.00 in0.0 mm 0.00 in0.0 mm
11:45 PM 35.0°F1.7°C 24.0°F-4.4°C 64% Calm Calm -- 27.00 in914.3 mb - 0.00 in0.0 mm 0.00 in0.0 mm
11:50 PM 35.0°F1.7°C 24.0°F-4.4°C 64% Calm Calm -- 27.00 in914.3 mb - 0.00 in0.0 mm 0.00 in0.0 mm
11:55 PM 34.9°F1.6°C 23.9°F-4.5°C 64% Calm Calm -- 27.00 in914.3 mb - 0.00 in0.0 mm 0.00 in0.0 mm